createdAt,value
2022-11-22T00:02:09.924Z,6.32
2022-11-22T00:04:52.784Z,6.65
2022-11-22T00:07:35.609Z,6.88
2022-11-22T00:10:18.568Z,6.00
2022-11-22T00:13:02.934Z,6.65
2022-11-22T00:15:45.974Z,6.60
2022-11-22T00:18:28.862Z,7.40
2022-11-22T00:21:11.704Z,7.22
2022-11-22T00:23:56.362Z,7.47
2022-11-22T00:26:39.075Z,7.80
2022-11-22T00:29:23.226Z,7.25
2022-11-22T00:32:06.152Z,6.88
2022-11-22T00:34:48.957Z,7.43
2022-11-22T00:37:31.708Z,7.82
2022-11-22T00:40:14.383Z,7.57
2022-11-22T00:42:57.246Z,8.07
2022-11-22T00:45:42.960Z,7.68
2022-11-22T00:48:25.796Z,7.82
2022-11-22T00:51:08.406Z,7.88
2022-11-22T00:53:51.050Z,8.45
2022-11-22T00:56:33.797Z,8.43
2022-11-22T00:59:16.432Z,7.80
2022-11-22T01:02:00.490Z,8.15
2022-11-22T01:04:43.113Z,7.72
2022-11-22T01:07:25.794Z,8.35
2022-11-22T01:10:09.061Z,7.90
2022-11-22T01:12:51.699Z,8.85
2022-11-22T01:15:34.369Z,9.15
2022-11-22T01:18:18.293Z,8.55
2022-11-22T01:21:01.180Z,8.48
2022-11-22T01:23:43.938Z,8.13
2022-11-22T01:26:26.621Z,8.27
2022-11-22T01:29:09.207Z,8.68
2022-11-22T01:31:52.007Z,8.77
2022-11-22T01:34:36.808Z,8.50
2022-11-22T01:37:19.442Z,8.50
2022-11-22T01:40:02.056Z,8.70
2022-11-22T01:42:47.280Z,8.75
2022-11-22T01:45:40.189Z,9.10
2022-11-22T01:48:35.397Z,8.48
2022-11-22T01:51:22.113Z,8.40
2022-11-22T01:54:07.563Z,8.10
2022-11-22T01:56:53.078Z,9.00
2022-11-22T01:59:36.671Z,9.32
2022-11-22T02:02:19.490Z,9.02
2022-11-22T02:05:03.563Z,8.52
2022-11-22T02:07:50.751Z,8.40
2022-11-22T02:10:35.541Z,8.50
2022-11-22T02:13:20.093Z,8.27
2022-11-22T02:16:02.933Z,8.52
2022-11-22T02:18:45.605Z,8.80
2022-11-22T02:21:28.630Z,8.32
2022-11-22T02:24:14.569Z,8.85
2022-11-22T02:26:59.376Z,8.35
2022-11-22T02:29:42.315Z,8.48
2022-11-22T02:32:25.010Z,8.30
2022-11-22T02:35:17.578Z,9.23
2022-11-22T02:38:02.442Z,9.63
2022-11-22T02:40:47.999Z,9.52
2022-11-22T02:43:34.115Z,8.73
2022-11-22T02:46:20.790Z,8.90
2022-11-22T02:49:03.542Z,8.98
2022-11-22T02:51:46.570Z,9.05
2022-11-22T02:54:29.264Z,9.25
2022-11-22T02:57:11.887Z,8.90
2022-11-22T02:59:55.916Z,8.98
2022-11-22T03:02:38.604Z,8.52
2022-11-22T03:05:21.306Z,8.55
2022-11-22T03:08:04.006Z,9.02
2022-11-22T03:10:46.684Z,8.52
2022-11-22T03:13:29.328Z,8.25
2022-11-22T03:16:13.347Z,7.95
2022-11-22T03:18:56.059Z,8.23
2022-11-22T03:21:39.109Z,7.93
2022-11-22T03:24:21.903Z,8.35
2022-11-22T03:27:04.639Z,8.40
2022-11-22T03:29:47.547Z,8.50
2022-11-22T03:32:31.646Z,8.55
2022-11-22T03:35:14.417Z,9.02
2022-11-22T03:37:57.111Z,9.10
2022-11-22T03:40:39.811Z,9.43
2022-11-22T03:43:22.652Z,9.48
2022-11-22T03:46:05.381Z,8.90
2022-11-22T03:48:49.411Z,9.00
2022-11-22T03:51:32.226Z,8.55
2022-11-22T03:54:14.948Z,9.80
2022-11-22T03:56:57.598Z,9.75
2022-11-22T03:59:40.283Z,9.57
2022-11-22T04:02:22.950Z,9.27
2022-11-22T04:05:07.553Z,9.27
2022-11-22T04:07:55.593Z,10.13
2022-11-22T04:10:38.224Z,9.75
2022-11-22T04:13:21.149Z,9.45
2022-11-22T04:16:02.785Z,9.60
2022-11-22T04:18:45.444Z,8.52
2022-11-22T04:21:34.286Z,9.35
2022-11-22T04:24:34.441Z,9.55
2022-11-22T04:27:17.041Z,8.90
2022-11-22T04:29:59.644Z,9.43
2022-11-22T04:32:47.375Z,9.20
2022-11-22T04:35:30.098Z,8.55
2022-11-22T04:38:14.559Z,8.68
2022-11-22T04:40:57.183Z,9.48
2022-11-22T04:43:57.291Z,9.60
2022-11-22T04:46:40.008Z,9.65
2022-11-22T04:49:22.718Z,9.15
2022-11-22T04:52:23.576Z,9.40
2022-11-22T04:55:08.322Z,9.48
2022-11-22T04:57:55.921Z,9.02
2022-11-22T05:00:40.473Z,9.23
2022-11-22T05:03:23.551Z,9.48
2022-11-22T05:06:06.553Z,9.20
2022-11-22T05:08:49.270Z,9.30
2022-11-22T05:11:33.350Z,8.68
2022-11-22T05:14:16.046Z,9.00
2022-11-22T05:16:58.677Z,9.13
2022-11-22T05:19:46.239Z,9.35
2022-11-22T05:22:49.334Z,9.68
2022-11-22T05:25:32.083Z,9.23
2022-11-22T05:28:16.117Z,9.02
2022-11-22T05:30:58.742Z,9.73
2022-11-22T05:33:42.421Z,9.25
2022-11-22T05:36:25.540Z,9.13
2022-11-22T05:39:08.249Z,9.73
2022-11-22T05:41:56.779Z,8.80
2022-11-22T05:44:40.852Z,8.50
2022-11-22T05:47:23.543Z,9.20
2022-11-22T05:50:06.811Z,9.45
2022-11-22T05:52:49.642Z,9.13
2022-11-22T05:55:32.342Z,8.90
2022-11-22T05:58:15.035Z,8.80
2022-11-22T06:01:02.971Z,8.82
2022-11-22T06:03:46.188Z,9.00
2022-11-22T06:06:28.942Z,9.30
2022-11-22T06:09:11.622Z,9.60
2022-11-22T06:11:54.489Z,8.85
2022-11-22T06:14:42.945Z,8.48
2022-11-22T06:17:27.741Z,9.57
2022-11-22T06:20:11.074Z,8.88
2022-11-22T06:22:53.890Z,9.40
2022-11-22T06:25:36.675Z,9.45
2022-11-22T06:28:19.497Z,8.48
2022-11-22T06:31:02.666Z,8.95
2022-11-22T06:33:46.768Z,8.93
2022-11-22T06:36:30.097Z,9.13
2022-11-22T06:39:12.822Z,9.02
2022-11-22T06:41:55.480Z,8.65
2022-11-22T06:44:38.200Z,9.07
2022-11-22T06:47:20.918Z,9.05
2022-11-22T06:50:05.151Z,10.05
2022-11-22T06:52:51.568Z,8.95
2022-11-22T06:55:50.091Z,8.82
2022-11-22T06:58:33.784Z,8.50
2022-11-22T07:01:17.678Z,8.95
2022-11-22T07:04:00.881Z,8.63
2022-11-22T07:06:45.212Z,9.20
2022-11-22T07:09:28.381Z,8.68
2022-11-22T07:12:11.348Z,9.10
2022-11-22T07:14:54.075Z,8.65
2022-11-22T07:17:36.822Z,8.48
2022-11-22T07:20:19.615Z,9.48
2022-11-22T07:23:03.645Z,8.73
2022-11-22T07:25:46.458Z,8.95
2022-11-22T07:28:29.287Z,8.55
2022-11-22T07:31:13.537Z,9.48
2022-11-22T07:33:56.749Z,9.07
2022-11-22T07:36:39.399Z,8.60
2022-11-22T07:39:23.440Z,8.07
2022-11-22T07:42:06.202Z,8.77
2022-11-22T07:44:48.821Z,9.10
2022-11-22T07:47:31.558Z,7.85
2022-11-22T07:50:14.415Z,8.20
2022-11-22T07:52:57.514Z,9.43
2022-11-22T07:55:41.768Z,8.35
2022-11-22T07:58:24.645Z,8.23
2022-11-22T08:01:07.938Z,8.80
2022-11-22T08:03:50.806Z,8.48
2022-11-22T08:06:33.579Z,8.50
2022-11-22T08:09:16.296Z,7.60
2022-11-22T08:12:00.410Z,8.73
2022-11-22T08:14:43.118Z,9.00
2022-11-22T08:17:25.810Z,8.85
2022-11-22T08:20:10.170Z,9.18
2022-11-22T08:22:52.919Z,7.65
2022-11-22T08:25:35.555Z,8.23
2022-11-22T08:28:19.565Z,9.05
2022-11-22T08:31:03.017Z,8.45
2022-11-22T08:33:45.860Z,8.65
2022-11-22T08:36:29.159Z,8.30
2022-11-22T08:39:11.965Z,8.77
2022-11-22T08:41:54.979Z,8.00
2022-11-22T08:44:39.074Z,8.85
2022-11-22T08:47:21.778Z,8.60
2022-11-22T08:50:04.801Z,8.75
2022-11-22T08:52:47.565Z,8.23
2022-11-22T08:55:30.334Z,8.63
2022-11-22T08:58:13.185Z,8.57
2022-11-22T09:00:57.411Z,8.68
2022-11-22T09:03:40.672Z,8.70
2022-11-22T09:09:41.768Z,8.43
2022-11-22T09:12:24.704Z,8.80
2022-11-22T09:15:07.651Z,8.52
2022-11-22T09:17:51.788Z,8.65
2022-11-22T09:20:34.618Z,9.00
2022-11-22T09:23:17.434Z,8.55
2022-11-22T09:26:00.632Z,8.93
2022-11-22T09:28:43.763Z,8.55
2022-11-22T09:31:26.599Z,8.45
2022-11-22T09:34:10.757Z,7.90
2022-11-22T09:36:53.472Z,8.85
2022-11-22T09:39:36.262Z,8.77
2022-11-22T09:42:29.723Z,9.13
2022-11-22T09:45:26.902Z,8.85
2022-11-22T09:48:15.352Z,8.80
2022-11-22T09:51:03.926Z,8.23
2022-11-22T09:53:48.133Z,9.35
2022-11-22T09:56:31.209Z,9.07
2022-11-22T09:59:15.503Z,8.68
2022-11-22T10:02:11.673Z,9.00
2022-11-22T10:05:02.186Z,9.23
2022-11-22T10:07:49.372Z,9.38
2022-11-22T10:10:36.354Z,8.60
2022-11-22T10:13:23.699Z,8.65
2022-11-22T10:16:11.413Z,9.27
2022-11-22T10:18:57.669Z,8.82
2022-11-22T10:21:40.430Z,9.07
2022-11-22T10:24:24.825Z,9.07
2022-11-22T10:27:12.810Z,9.55
2022-11-22T10:29:57.481Z,9.00
2022-11-22T10:32:41.756Z,9.05
2022-11-22T10:35:32.993Z,8.85
2022-11-22T10:38:33.022Z,9.30
2022-11-22T10:41:21.675Z,8.60
2022-11-22T10:44:11.611Z,9.02
2022-11-22T10:47:00.015Z,8.35
2022-11-22T10:49:46.792Z,9.30
2022-11-22T10:52:34.511Z,8.88
2022-11-22T10:55:23.726Z,8.70
2022-11-22T10:58:11.867Z,9.00
2022-11-22T11:00:59.372Z,9.05
2022-11-22T11:03:44.631Z,8.68
2022-11-22T11:06:56.841Z,9.55
2022-11-22T11:12:44.115Z,9.50
2022-11-22T11:15:32.662Z,9.15
2022-11-22T11:18:16.334Z,9.70
2022-11-22T11:20:59.226Z,9.25
2022-11-22T11:23:42.334Z,8.82
2022-11-22T11:26:27.051Z,9.13
2022-11-22T11:29:32.078Z,9.90
2022-11-22T11:32:20.812Z,9.70
2022-11-22T11:35:05.457Z,9.43
2022-11-22T11:37:48.296Z,9.55
2022-11-22T11:40:32.012Z,9.65
2022-11-22T11:43:20.069Z,9.45
2022-11-22T11:46:15.697Z,9.20
2022-11-22T11:49:10.512Z,9.30
2022-11-22T11:51:55.863Z,9.65
2022-11-22T11:54:41.647Z,9.52
2022-11-22T11:57:28.355Z,8.63
2022-11-22T12:00:20.668Z,9.20
2022-11-22T12:03:07.424Z,9.15
2022-11-22T12:06:11.725Z,9.13
2022-11-22T12:08:54.585Z,9.10
2022-11-22T12:11:42.775Z,8.93
2022-11-22T12:14:37.728Z,9.07
2022-11-22T12:17:31.533Z,9.10
2022-11-22T12:20:17.357Z,9.25
2022-11-22T12:23:06.998Z,8.95
2022-11-22T12:25:51.289Z,8.98
2022-11-22T12:28:34.267Z,9.65
2022-11-22T12:31:22.610Z,8.88
2022-11-22T12:34:08.513Z,8.77
2022-11-22T12:36:52.876Z,9.98
2022-11-22T12:39:37.953Z,9.38
2022-11-22T12:42:23.555Z,9.55
2022-11-22T12:45:07.595Z,8.80
2022-11-22T12:47:51.011Z,9.23
2022-11-22T12:50:37.888Z,9.43
2022-11-22T12:53:22.515Z,10.00
2022-11-22T12:56:11.579Z,9.25
2022-11-22T12:58:58.748Z,9.50
2022-11-22T13:01:44.743Z,9.23
2022-11-22T13:04:28.877Z,9.70
2022-11-22T13:07:15.029Z,9.45
2022-11-22T13:10:00.132Z,9.73
2022-11-22T13:12:44.690Z,9.43
2022-11-22T13:15:28.931Z,9.20
2022-11-22T13:18:12.627Z,8.82
2022-11-22T13:21:00.205Z,9.65
2022-11-22T13:23:50.021Z,9.05
2022-11-22T13:26:36.823Z,9.52
2022-11-22T13:29:23.038Z,9.85
2022-11-22T13:32:07.672Z,8.73
2022-11-22T13:35:05.829Z,9.40
2022-11-22T13:37:50.426Z,9.30
2022-11-22T13:40:34.965Z,8.93
2022-11-22T13:43:47.981Z,9.63
2022-11-22T13:46:53.221Z,9.55
2022-11-22T13:49:46.823Z,9.45
2022-11-22T13:52:50.096Z,9.20
2022-11-22T13:55:40.459Z,9.30
2022-11-22T13:58:50.681Z,9.80
2022-11-22T14:01:51.898Z,9.27
2022-11-22T14:04:43.513Z,9.40
2022-11-22T14:07:39.652Z,9.20
2022-11-22T14:10:27.990Z,8.80
2022-11-22T14:13:21.362Z,9.80
2022-11-22T14:16:07.937Z,9.13
2022-11-22T14:18:57.211Z,10.10
2022-11-22T14:21:57.628Z,10.05
2022-11-22T14:24:50.577Z,9.40
2022-11-22T14:27:39.038Z,9.68
2022-11-22T14:30:22.984Z,10.07
2022-11-22T14:33:06.942Z,9.18
2022-11-22T14:36:08.082Z,9.60
2022-11-22T14:38:50.788Z,10.00
2022-11-22T14:41:45.150Z,9.88
2022-11-22T14:44:32.499Z,9.70
2022-11-22T14:47:15.357Z,10.65
2022-11-22T14:49:58.198Z,10.18
2022-11-22T14:52:41.359Z,9.55
2022-11-22T14:55:26.345Z,10.35
2022-11-22T14:58:15.003Z,10.43
2022-11-22T15:01:15.599Z,9.98
2022-11-22T15:09:10.443Z,9.10
2022-11-22T15:09:22.565Z,9.75
2022-11-22T15:10:33.196Z,10.02
2022-11-22T15:13:24.908Z,9.68
2022-11-22T15:59:36.762Z,9.65
2022-11-22T16:02:21.704Z,10.15
2022-11-22T16:06:09.510Z,9.57
2022-11-22T16:08:12.433Z,9.93
2022-11-22T16:10:55.371Z,9.32
2022-11-22T16:13:39.944Z,10.13
2022-11-22T16:16:27.063Z,9.93
2022-11-22T16:19:22.735Z,10.35
2022-11-22T16:22:05.421Z,10.10
2022-11-22T16:24:48.316Z,11.10
2022-11-22T16:27:31.085Z,9.45
2022-11-22T16:30:17.158Z,10.85
2022-11-22T16:33:03.568Z,9.68
2022-11-22T16:35:47.629Z,10.30
2022-11-22T16:38:30.476Z,10.80
2022-11-22T16:41:14.185Z,10.75
2022-11-22T16:43:57.952Z,10.07
2022-11-22T16:46:40.964Z,10.38
2022-11-22T16:49:23.696Z,9.90
2022-11-22T16:52:11.014Z,10.63
2022-11-22T16:54:53.714Z,10.20
2022-11-22T16:57:36.405Z,11.43
2022-11-22T17:00:19.231Z,10.90
2022-11-22T17:03:02.988Z,10.32
2022-11-22T17:05:45.870Z,10.30
2022-11-22T17:08:29.964Z,10.05
2022-11-22T17:11:14.779Z,11.32
2022-11-22T17:13:57.463Z,9.82
2022-11-22T17:16:40.180Z,10.85
2022-11-22T17:19:52.573Z,9.32
2022-11-22T17:22:26.041Z,11.25
2022-11-22T17:25:11.857Z,10.20
2022-11-22T17:27:54.513Z,10.13
2022-11-22T17:30:37.232Z,10.57
2022-11-22T17:33:19.884Z,10.57
2022-11-22T17:36:02.803Z,10.25
2022-11-22T17:38:45.764Z,10.63
2022-11-22T17:41:30.400Z,10.80
2022-11-22T17:44:15.594Z,11.05
2022-11-22T17:46:58.255Z,10.73
2022-11-22T17:49:40.986Z,11.30
2022-11-22T17:52:23.692Z,10.80
2022-11-22T17:55:10.496Z,10.80
2022-11-22T17:57:57.305Z,10.50
2022-11-22T18:00:40.458Z,10.27
2022-11-22T18:03:23.247Z,10.50
2022-11-22T18:06:06.135Z,10.60
2022-11-22T18:08:49.094Z,10.63
2022-11-22T18:11:32.161Z,10.63
2022-11-22T18:14:16.245Z,10.38
2022-11-22T18:17:00.373Z,10.98
2022-11-22T18:19:43.658Z,11.05
2022-11-22T18:22:26.337Z,10.90
2022-11-22T18:25:09.470Z,10.63
2022-11-22T18:27:52.400Z,10.48
2022-11-22T18:30:36.488Z,10.63
2022-11-22T18:33:19.182Z,10.88
2022-11-22T18:36:02.455Z,10.88
2022-11-22T18:38:45.227Z,10.45
2022-11-22T18:41:27.897Z,10.88
2022-11-22T18:44:10.672Z,11.13
2022-11-22T18:46:54.751Z,11.38
2022-11-22T18:49:37.790Z,9.75
2022-11-22T18:52:22.937Z,11.20
2022-11-22T18:55:06.086Z,10.77
2022-11-22T18:57:51.063Z,11.15
2022-11-22T19:00:33.796Z,11.05
2022-11-22T19:03:17.899Z,10.55
2022-11-22T19:06:00.645Z,11.63
2022-11-22T19:08:44.512Z,11.50
2022-11-22T19:11:27.370Z,11.95
2022-11-22T19:14:10.255Z,12.13
2022-11-22T19:16:53.001Z,12.20
2022-11-22T19:19:37.227Z,11.73
2022-11-22T19:22:20.056Z,11.10
2022-11-22T19:25:02.981Z,11.18
2022-11-22T19:27:48.123Z,11.40
2022-11-22T19:30:31.272Z,10.75
2022-11-22T19:33:15.656Z,12.32
2022-11-22T19:36:00.982Z,11.63
2022-11-22T19:38:43.797Z,11.27
2022-11-22T19:41:26.742Z,10.00
2022-11-22T19:44:09.688Z,11.73
2022-11-22T19:46:52.372Z,11.18
2022-11-22T19:49:35.176Z,11.70
2022-11-22T19:52:20.156Z,11.63
2022-11-22T19:55:02.939Z,11.00
2022-11-22T19:57:45.826Z,11.77
2022-11-22T20:00:28.575Z,12.07
2022-11-22T20:03:12.401Z,11.88
2022-11-22T20:05:59.946Z,13.02
2022-11-22T20:08:44.288Z,12.63
2022-11-22T20:11:26.965Z,12.40
2022-11-22T20:14:10.463Z,12.63
2022-11-22T20:16:53.235Z,12.20
2022-11-22T20:19:36.057Z,12.88
2022-11-22T20:22:18.711Z,13.10
2022-11-22T20:25:03.037Z,13.27
2022-11-22T20:27:45.791Z,12.73
2022-11-22T20:30:28.979Z,11.27
2022-11-22T20:33:11.787Z,12.60
2022-11-22T20:36:01.938Z,11.60
2022-11-22T20:38:45.081Z,12.13
2022-11-22T20:41:30.014Z,11.95
2022-11-22T20:44:13.453Z,12.43
2022-11-22T20:46:56.173Z,12.63
2022-11-22T20:49:42.505Z,12.70
2022-11-22T20:52:28.170Z,12.43
2022-11-22T20:55:11.806Z,11.43
2022-11-22T20:57:55.894Z,11.50
2022-11-22T21:00:39.223Z,12.50
2022-11-22T21:03:22.245Z,12.40
2022-11-22T21:06:05.139Z,11.30
2022-11-22T21:08:48.863Z,12.00
2022-11-22T21:11:32.118Z,10.63
2022-11-22T21:14:16.239Z,11.88
2022-11-22T21:17:16.381Z,10.80
2022-11-22T21:20:01.577Z,10.38
2022-11-22T21:22:44.289Z,10.90
2022-11-22T21:25:27.076Z,10.82
2022-11-22T21:28:09.770Z,11.43
2022-11-22T21:30:58.114Z,11.75
2022-11-22T21:33:40.868Z,10.77
2022-11-22T21:36:23.858Z,11.05
2022-11-22T21:39:06.612Z,11.27
2022-11-22T21:41:49.495Z,11.88
2022-11-22T21:44:33.758Z,10.93
2022-11-22T21:47:17.837Z,10.05
2022-11-22T21:50:00.653Z,10.48
2022-11-22T21:52:43.428Z,10.73
2022-11-22T21:55:26.187Z,10.73
2022-11-22T21:58:08.962Z,11.15
2022-11-22T22:00:52.211Z,9.93
2022-11-22T22:03:36.244Z,10.70
2022-11-22T22:06:18.896Z,10.32
2022-11-22T22:09:01.748Z,10.75
2022-11-22T22:11:47.650Z,10.73
2022-11-22T22:14:30.441Z,10.57
2022-11-22T22:17:13.154Z,10.95
2022-11-22T22:19:57.385Z,10.15
2022-11-22T22:22:40.036Z,10.75
2022-11-22T22:25:22.831Z,10.60
2022-11-22T22:28:05.649Z,10.07
2022-11-22T22:30:48.388Z,10.13
2022-11-22T22:33:31.231Z,10.15
2022-11-22T22:36:15.308Z,10.18
2022-11-22T22:38:57.962Z,9.90
2022-11-22T22:41:40.661Z,9.90
2022-11-22T22:44:23.396Z,10.50
2022-11-22T22:47:06.018Z,9.02
2022-11-22T22:49:48.919Z,9.60
2022-11-22T22:52:32.984Z,9.52
2022-11-22T22:55:15.866Z,9.60
2022-11-22T22:58:00.461Z,10.45
2022-11-22T23:00:43.095Z,10.20
2022-11-22T23:03:25.816Z,9.23
2022-11-22T23:06:09.327Z,10.73
2022-11-22T23:08:53.949Z,9.43
2022-11-22T23:11:54.543Z,9.65
2022-11-22T23:14:37.205Z,10.82
2022-11-22T23:17:19.865Z,9.48
2022-11-22T23:20:02.500Z,9.48
2022-11-22T23:22:45.310Z,9.25
2022-11-22T23:25:29.371Z,9.15
2022-11-22T23:28:12.005Z,9.25
2022-11-22T23:30:54.722Z,9.68
2022-11-22T23:33:37.688Z,8.90
2022-11-22T23:36:21.237Z,9.38
2022-11-22T23:39:03.859Z,9.07
2022-11-22T23:41:48.005Z,9.77
2022-11-22T23:44:30.628Z,8.77
2022-11-22T23:47:13.306Z,9.80
2022-11-22T23:49:55.915Z,9.23
2022-11-22T23:52:38.604Z,9.15
2022-11-22T23:55:21.282Z,9.57
2022-11-22T23:58:05.571Z,9.07
